Bitflower — SBJE — position and weather

sailwx.info

Track history (hours):
 
Tides and Currents Weather Stations Pressure Air Temp Water Temp Dewpoint Dewpoint Depression Visibility Wind Speed Wind Dir Waves Ship Positions

Bitflower

Last reported at 2015-Jul-06 08:33 UTC. Time now 2015-Jul-06 13:30 UTC.
Position N 53°29' E 009°58'.

Length 116 m; draft 4.8 m.

Type: Tanker. MMSI: 266009000.

Date/timePositionNaut miles runAvg speedWind from/ knotsBaromVisibWave heightAir tempDewpointWater temp
2015-Jul-06 08:33N 53°29' E 009°58'3 3.1
2015-Jul-06 07:33N 53°32' E 009°56'8 8.0
2015-Jul-06 06:33N 53°34' E 009°43'10 9.2
2015-Jul-06 05:30N 53°40' E 009°31'910.0
2015-Jul-06 04:33N 53°48' E 009°23'10 9.9
2015-Jul-06 03:34N 53°53' E 009°08'1211.7
2015-Jul-06 02:33N 53°50' E 008°49'1111.0
2015-Jul-06 01:33N 53°58' E 008°35'1212.2
2015-Jul-06 00:33N 53°60' E 008°14'8 8.0
2015-Jul-05 23:33N 54°00' E 008°01'6 6.2
2015-Jul-05 22:33N 54°04' E 007°52'6 6.2
2015-Jul-05 21:33N 54°07' E 007°43'6 6.3
2015-Jul-05 20:33N 54°12' E 007°36'7 6.6
2015-Jul-05 19:33N 54°17' E 007°31'1111.5
2015-Jul-05 18:33N 54°27' E 007°21'1111.5
2015-Jul-05 17:33N 54°37' E 007°11'1211.8
2015-Jul-05 16:33N 54°47' E 007°00'1211.9
2015-Jul-05 15:33N 54°58' E 006°50'1212.1
2015-Jul-05 14:33N 55°08' E 006°40'1212.0
2015-Jul-05 13:33N 55°19' E 006°31'1312.5
2015-Jul-05 12:32N 55°31' E 006°23'1412.8
2015-Jul-05 11:29N 55°44' E 006°16'1213.0
2015-Jul-05 10:33N 55°55' E 006°09'15113.3
2015-Jul-04 23:15N 58°19' E 004°43'912.6
2015-Jul-04 22:31N 58°28' E 004°38'1312.5
2015-Jul-04 21:28N 58°40' E 004°30'1212.9
2015-Jul-04 20:33N 58°52' E 004°34'1412.7
2015-Jul-04 19:29N 59°05' E 004°38'257 8.9
2015-Jul-03 14:32N 63°06' E 007°42'1 0.1
2015-Jul-02 23:06N 63°06' E 007°45'245 6.7
2015-Jul-01 10:28N 59°18' E 004°38'1112.3
2015-Jul-01 09:33N 59°09' E 004°51'1212.0
2015-Jul-01 08:33N 59°04' E 005°12'1110.8
2015-Jul-01 07:33N 59°05' E 005°33'1010.4
2015-Jul-01 06:33N 58°58' E 005°48'5 5.4
2015-Jul-01 05:33N 58°53' E 005°45'0 0.0
2015-Jul-01 04:33N 58°53' E 005°45'0 0.0
2015-Jul-01 03:33N 58°53' E 005°45'0 0.0
2015-Jul-01 02:21N 58°53' E 005°45'0 0.0
2015-Jul-01 01:33N 58°53' E 005°45'0 0.0
2015-Jul-01 00:33N 58°53' E 005°45'0 0.0
2015-Jun-30 23:33N 58°53' E 005°45'0 0.0
2015-Jun-30 22:33N 58°53' E 005°45'0 0.3
2015-Jun-30 21:34N 58°53' E 005°45'9 8.8
2015-Jun-30 20:34N 59°01' E 005°40'9 9.0
2015-Jun-30 19:33N 58°53' E 005°32'1212.5
2015-Jun-30 18:34N 58°43' E 005°17'1413.5
2015-Jun-30 17:33N 58°30' E 005°11'25912.9
2015-Jun-29 21:26N 54°11' E 005°03'1112.0
2015-Jun-29 20:33N 54°00' E 005°04'1313.2
2015-Jun-29 19:33N 53°48' E 004°57'1413.5
2015-Jun-29 18:33N 53°35' E 004°49'1313.6
2015-Jun-29 17:33N 53°23' E 004°41'1413.9
2015-Jun-29 16:33N 53°10' E 004°31'1414.4
2015-Jun-29 15:33N 52°58' E 004°19'1414.3
2015-Jun-29 14:33N 52°45' E 004°07'1514.6
2015-Jun-29 13:33N 52°35' E 003°51'1414.1
2015-Jun-29 12:33N 52°23' E 003°37'1414.4
2015-Jun-29 11:34N 52°10' E 003°28'3511.8
2015-Jun-29 08:33N 51°35' E 003°24'1010.5
2015-Jun-29 07:34N 51°26' E 003°34'9 8.8
2015-Jun-29 06:33N 51°22' E 003°46'1010.5
2015-Jun-29 05:33N 51°25' E 004°02'1010.2
2015-Jun-29 04:34N 51°21' E 004°16'0 0.4
2015-Jun-29 03:33N 51°21' E 004°17'5 5.0
2015-Jun-29 02:33N 51°16' E 004°20'0 0.3
2015-Jun-29 01:18N 51°16' E 004°20'0 0.0
2015-Jun-29 00:30N 51°16' E 004°20'0 0.0
2015-Jun-28 23:27N 51°16' E 004°20'0 0.0
2015-Jun-28 22:33N 51°16' E 004°20'0 0.0
2015-Jun-28 21:33N 51°16' E 004°20'0 0.0
2015-Jun-28 20:30N 51°16' E 004°20'0 0.0
2015-Jun-28 19:33N 51°16' E 004°20'0 0.0
2015-Jun-28 18:33N 51°16' E 004°20'0 0.0
2015-Jun-28 17:21N 51°16' E 004°20'0 0.0
2015-Jun-28 16:21N 51°16' E 004°20'0 0.0
2015-Jun-28 15:33N 51°16' E 004°20'0 0.0
2015-Jun-28 14:33N 51°16' E 004°20'0 0.0
2015-Jun-28 13:33N 51°16' E 004°20'0 0.0
2015-Jun-28 12:33N 51°16' E 004°20'0 0.0
2015-Jun-28 11:33N 51°16' E 004°20'0 0.0
2015-Jun-28 10:24N 51°16' E 004°20'0 0.0
2015-Jun-28 09:33N 51°16' E 004°20'0 0.0
2015-Jun-28 08:30N 51°16' E 004°20'0 0.0
2015-Jun-28 07:30N 51°16' E 004°20'0 0.0
2015-Jun-28 06:30N 51°16' E 004°20'0 0.0
2015-Jun-28 05:33N 51°16' E 004°20'0 0.0
2015-Jun-28 04:33N 51°16' E 004°20'0 0.0
2015-Jun-28 03:33N 51°16' E 004°20'0 0.0
2015-Jun-28 02:33N 51°16' E 004°20'0 0.0
2015-Jun-28 01:33N 51°16' E 004°20'0 0.0
2015-Jun-28 00:30N 51°16' E 004°20'0 0.0
2015-Jun-27 23:21N 51°16' E 004°20'0 0.0
2015-Jun-27 22:30N 51°16' E 004°20'0 0.0
2015-Jun-27 21:33N 51°16' E 004°20'0 0.0
2015-Jun-27 20:27N 51°16' E 004°20'0 0.0
2015-Jun-27 19:30N 51°16' E 004°20'0 0.0
2015-Jun-27 18:32N 51°16' E 004°20'0 0.0
2015-Jun-27 17:33N 51°16' E 004°20'0 0.0
2015-Jun-27 16:33N 51°16' E 004°20'0 0.0
2015-Jun-27 15:33N 51°16' E 004°20'0 0.0
2015-Jun-27 14:24N 51°16' E 004°20'0 0.0
2015-Jun-27 13:30N 51°16' E 004°20'0 0.1
2015-Jun-27 12:33N 51°16' E 004°20'0 0.1
2015-Jun-27 11:30N 51°16' E 004°20'0 0.0
2015-Jun-27 10:27N 51°16' E 004°20'0 0.0
2015-Jun-27 09:24N 51°16' E 004°20'0 0.1
2015-Jun-27 08:33N 51°16' E 004°20'0 0.0
2015-Jun-27 07:30N 51°16' E 004°20'0 0.0
2015-Jun-27 06:21N 51°16' E 004°20'0 0.0
2015-Jun-27 05:33N 51°16' E 004°20'0 0.0
2015-Jun-27 04:33N 51°16' E 004°20'0 0.0
2015-Jun-27 03:33N 51°16' E 004°20'0 0.0
2015-Jun-27 02:33N 51°16' E 004°20'0 0.0
2015-Jun-27 01:33N 51°16' E 004°20'0 0.0
2015-Jun-27 00:30N 51°16' E 004°20'0 0.0
2015-Jun-26 23:30N 51°16' E 004°20'0 0.0
2015-Jun-26 22:33N 51°16' E 004°20'0 0.0
2015-Jun-26 21:30N 51°16' E 004°20'0 0.0
2015-Jun-26 20:33N 51°16' E 004°20'1 1.0
2015-Jun-26 19:33N 51°17' E 004°20'5 4.9
2015-Jun-26 18:33N 51°21' E 004°16'8 7.8
2015-Jun-26 17:33N 51°22' E 004°04'5 5.1
2015-Jun-26 16:33N 51°22' E 003°55'1010.5
2015-Jun-26 15:33N 51°26' E 003°40'8 8.5
2015-Jun-26 14:33N 51°25' E 003°27'9 8.8
2015-Jun-26 13:33N 51°24' E 003°13'9 9.5
2015-Jun-26 12:33N 51°23' E 002°58'1312.4
2015-Jun-26 11:33N 51°22' E 002°38'4 3.7
2015-Jun-26 10:31N 51°20' E 002°32'0 0.0
2015-Jun-26 09:23N 51°20' E 002°32'  
Track history (hours):
 
Tides and Currents Weather Stations Pressure Air Temp Water Temp Dewpoint Dewpoint Depression Visibility Wind Speed Wind Dir Waves Ship Positions

Bitflower

Last reported at 2015-Jul-06 08:33 UTC. Time now 2015-Jul-06 13:30 UTC.
Position N 53°29' E 009°58'.

Length 116 m; draft 4.8 m.

Type: Tanker. MMSI: 266009000.

Date/timePositionNaut miles runAvg speedWind from/ knotsBaromVisibWave heightAir tempDewpointWater temp
2015-Jul-06 08:33N 53°29' E 009°58'3 3.1
2015-Jul-06 07:33N 53°32' E 009°56'8 8.0
2015-Jul-06 06:33N 53°34' E 009°43'10 9.2
2015-Jul-06 05:30N 53°40' E 009°31'910.0
2015-Jul-06 04:33N 53°48' E 009°23'10 9.9
2015-Jul-06 03:34N 53°53' E 009°08'1211.7
2015-Jul-06 02:33N 53°50' E 008°49'1111.0
2015-Jul-06 01:33N 53°58' E 008°35'1212.2
2015-Jul-06 00:33N 53°60' E 008°14'8 8.0
2015-Jul-05 23:33N 54°00' E 008°01'6 6.2
2015-Jul-05 22:33N 54°04' E 007°52'6 6.2
2015-Jul-05 21:33N 54°07' E 007°43'6 6.3
2015-Jul-05 20:33N 54°12' E 007°36'7 6.6
2015-Jul-05 19:33N 54°17' E 007°31'1111.5
2015-Jul-05 18:33N 54°27' E 007°21'1111.5
2015-Jul-05 17:33N 54°37' E 007°11'1211.8
2015-Jul-05 16:33N 54°47' E 007°00'1211.9
2015-Jul-05 15:33N 54°58' E 006°50'1212.1
2015-Jul-05 14:33N 55°08' E 006°40'1212.0
2015-Jul-05 13:33N 55°19' E 006°31'1312.5
2015-Jul-05 12:32N 55°31' E 006°23'1412.8
2015-Jul-05 11:29N 55°44' E 006°16'1213.0
2015-Jul-05 10:33N 55°55' E 006°09'15113.3
2015-Jul-04 23:15N 58°19' E 004°43'912.6
2015-Jul-04 22:31N 58°28' E 004°38'1312.5
2015-Jul-04 21:28N 58°40' E 004°30'1212.9
2015-Jul-04 20:33N 58°52' E 004°34'1412.7
2015-Jul-04 19:29N 59°05' E 004°38'257 8.9
2015-Jul-03 14:32N 63°06' E 007°42'1 0.1
2015-Jul-02 23:06N 63°06' E 007°45'245 6.7
2015-Jul-01 10:28N 59°18' E 004°38'1112.3
2015-Jul-01 09:33N 59°09' E 004°51'1212.0
2015-Jul-01 08:33N 59°04' E 005°12'1110.8
2015-Jul-01 07:33N 59°05' E 005°33'1010.4
2015-Jul-01 06:33N 58°58' E 005°48'5 5.4
2015-Jul-01 05:33N 58°53' E 005°45'0 0.0
2015-Jul-01 04:33N 58°53' E 005°45'0 0.0
2015-Jul-01 03:33N 58°53' E 005°45'0 0.0
2015-Jul-01 02:21N 58°53' E 005°45'0 0.0
2015-Jul-01 01:33N 58°53' E 005°45'0 0.0
2015-Jul-01 00:33N 58°53' E 005°45'0 0.0
2015-Jun-30 23:33N 58°53' E 005°45'0 0.0
2015-Jun-30 22:33N 58°53' E 005°45'0 0.3
2015-Jun-30 21:34N 58°53' E 005°45'9 8.8
2015-Jun-30 20:34N 59°01' E 005°40'9 9.0
2015-Jun-30 19:33N 58°53' E 005°32'1212.5
2015-Jun-30 18:34N 58°43' E 005°17'1413.5
2015-Jun-30 17:33N 58°30' E 005°11'25912.9
2015-Jun-29 21:26N 54°11' E 005°03'1112.0
2015-Jun-29 20:33N 54°00' E 005°04'1313.2
2015-Jun-29 19:33N 53°48' E 004°57'1413.5
2015-Jun-29 18:33N 53°35' E 004°49'1313.6
2015-Jun-29 17:33N 53°23' E 004°41'1413.9
2015-Jun-29 16:33N 53°10' E 004°31'1414.4
2015-Jun-29 15:33N 52°58' E 004°19'1414.3
2015-Jun-29 14:33N 52°45' E 004°07'1514.6
2015-Jun-29 13:33N 52°35' E 003°51'1414.1
2015-Jun-29 12:33N 52°23' E 003°37'1414.4
2015-Jun-29 11:34N 52°10' E 003°28'3511.8
2015-Jun-29 08:33N 51°35' E 003°24'1010.5
2015-Jun-29 07:34N 51°26' E 003°34'9 8.8
2015-Jun-29 06:33N 51°22' E 003°46'1010.5
2015-Jun-29 05:33N 51°25' E 004°02'1010.2
2015-Jun-29 04:34N 51°21' E 004°16'0 0.4
2015-Jun-29 03:33N 51°21' E 004°17'5 5.0
2015-Jun-29 02:33N 51°16' E 004°20'0 0.3
2015-Jun-29 01:18N 51°16' E 004°20'0 0.0
2015-Jun-29 00:30N 51°16' E 004°20'0 0.0
2015-Jun-28 23:27N 51°16' E 004°20'0 0.0
2015-Jun-28 22:33N 51°16' E 004°20'0 0.0
2015-Jun-28 21:33N 51°16' E 004°20'0 0.0
2015-Jun-28 20:30N 51°16' E 004°20'0 0.0
2015-Jun-28 19:33N 51°16' E 004°20'0 0.0
2015-Jun-28 18:33N 51°16' E 004°20'0 0.0
2015-Jun-28 17:21N 51°16' E 004°20'0 0.0
2015-Jun-28 16:21N 51°16' E 004°20'0 0.0
2015-Jun-28 15:33N 51°16' E 004°20'0 0.0
2015-Jun-28 14:33N 51°16' E 004°20'0 0.0
2015-Jun-28 13:33N 51°16' E 004°20'0 0.0
2015-Jun-28 12:33N 51°16' E 004°20'0 0.0
2015-Jun-28 11:33N 51°16' E 004°20'0 0.0
2015-Jun-28 10:24N 51°16' E 004°20'0 0.0
2015-Jun-28 09:33N 51°16' E 004°20'0 0.0
2015-Jun-28 08:30N 51°16' E 004°20'0 0.0
2015-Jun-28 07:30N 51°16' E 004°20'0 0.0
2015-Jun-28 06:30N 51°16' E 004°20'0 0.0
2015-Jun-28 05:33N 51°16' E 004°20'0 0.0
2015-Jun-28 04:33N 51°16' E 004°20'0 0.0
2015-Jun-28 03:33N 51°16' E 004°20'0 0.0
2015-Jun-28 02:33N 51°16' E 004°20'0 0.0
2015-Jun-28 01:33N 51°16' E 004°20'0 0.0
2015-Jun-28 00:30N 51°16' E 004°20'0 0.0
2015-Jun-27 23:21N 51°16' E 004°20'0 0.0
2015-Jun-27 22:30N 51°16' E 004°20'0 0.0
2015-Jun-27 21:33N 51°16' E 004°20'0 0.0
2015-Jun-27 20:27N 51°16' E 004°20'0 0.0
2015-Jun-27 19:30N 51°16' E 004°20'0 0.0
2015-Jun-27 18:32N 51°16' E 004°20'0 0.0
2015-Jun-27 17:33N 51°16' E 004°20'0 0.0
2015-Jun-27 16:33N 51°16' E 004°20'0 0.0
2015-Jun-27 15:33N 51°16' E 004°20'0 0.0
2015-Jun-27 14:24N 51°16' E 004°20'0 0.0
2015-Jun-27 13:30N 51°16' E 004°20'0 0.1
2015-Jun-27 12:33N 51°16' E 004°20'0 0.1
2015-Jun-27 11:30N 51°16' E 004°20'0 0.0
2015-Jun-27 10:27N 51°16' E 004°20'0 0.0
2015-Jun-27 09:24N 51°16' E 004°20'0 0.1
2015-Jun-27 08:33N 51°16' E 004°20'0 0.0
2015-Jun-27 07:30N 51°16' E 004°20'0 0.0
2015-Jun-27 06:21N 51°16' E 004°20'0 0.0
2015-Jun-27 05:33N 51°16' E 004°20'0 0.0
2015-Jun-27 04:33N 51°16' E 004°20'0 0.0
2015-Jun-27 03:33N 51°16' E 004°20'0 0.0
2015-Jun-27 02:33N 51°16' E 004°20'0 0.0
2015-Jun-27 01:33N 51°16' E 004°20'0 0.0
2015-Jun-27 00:30N 51°16' E 004°20'0 0.0
2015-Jun-26 23:30N 51°16' E 004°20'0 0.0
2015-Jun-26 22:33N 51°16' E 004°20'0 0.0
2015-Jun-26 21:30N 51°16' E 004°20'0 0.0
2015-Jun-26 20:33N 51°16' E 004°20'1 1.0
2015-Jun-26 19:33N 51°17' E 004°20'5 4.9
2015-Jun-26 18:33N 51°21' E 004°16'8 7.8
2015-Jun-26 17:33N 51°22' E 004°04'5 5.1
2015-Jun-26 16:33N 51°22' E 003°55'1010.5
2015-Jun-26 15:33N 51°26' E 003°40'8 8.5
2015-Jun-26 14:33N 51°25' E 003°27'9 8.8
2015-Jun-26 13:33N 51°24' E 003°13'9 9.5
2015-Jun-26 12:33N 51°23' E 002°58'1312.4
2015-Jun-26 11:33N 51°22' E 002°38'4 3.7
2015-Jun-26 10:31N 51°20' E 002°32'0 0.0
2015-Jun-26 09:23N 51°20' E 002°32'  

Dump ship's entire track history